Ride Results

Roseberg Endurance Ride 1-2 Aug (01-08-2020)
Ride distance: 80.0 km

Outcomes - Roseberg Endurance Ride 1-2 Aug (01-08-2020)
Division No. of Entries Retired / DNE Completed Withdrawn Ineligible V/O Percentage Completed
HW 9 - 5 1 - 3 55.56%
MW 33 - 24 4 - 5 72.73%
LW 23 - 19 1 - 3 82.61%
JN 9 - 8 - - 1 88.89%
Totals 74 - 56 6 - 12 75.68%
Results - Roseberg Endurance Ride 1-2 Aug (01-08-2020)
No. Rider Horse Place Time Leg Speeds Total
Km/Hr
H/R bpm
Heavyweight
209 Marty Moran Coco Chanel 1 (BC) 6:20:11 11.1, 14.4 12.63 38, 45, 48 (Avg:46)
206 Andrew Jonkers Girilambone Comet 2 6:59:07 12.4, 10.6 11.45 36, 45, 44 (Avg:44)
208 Tony Warren Razorback Darcy 3 7:32:59 9.8, 11.4 10.60 38, 42, 48 (Avg:45)
205 Hannah Mitchell Sahara Park Miss Rubicon 4 7:35:36 10.8, 10.2 10.54 42, 44, 47 (Avg:45)
202 Maureen Zeschke Skyvictory 5 7:56:30 9.1, 11.1 10.07 28, 47, 50 (Avg:48)
207 Gavin Peacock Chop Chop Heart Rate L2 6:39:36 11.1, 13.0 12.01 34, 49, 64 (Avg:56)
201 Stephen Deering Anzac Heart Rate L2 7:56:36 9.1, 11.1 10.07 35, 46, 67 (Avg:56)
116 Brian Swan Arabesque Abdul Heart Rate L1 3:13:59 12.3 12.37 40, 60 (Avg:60)
238 Jessica Dastani Al Jeda Hammerlli W/D after vetting L1 5:17:51 - 7.55 41, 54 (Avg:54)
Middleweight
251 Ellen Vine Alzarah 1 4:52:56 13.7, 20.3 16.39 34, 46, 49 (Avg:47)
244 Ian Curtis Marat MA 2 5:07:39 13.9, 17.7 15.60 42, 41, 50 (Avg:45)
275 Rodney Curry Oso Zoltan 3 (BC) 5:17:08 13.6, 16.9 15.14 40, 42, 51 (Avg:46)
227 Sharyn Coulston Castlebar Roulette 4 5:24:44 13.0, 17.0 14.78 29, 48, 52 (Avg:50)
231 Bev Turner Dane 5 6:20:07 11.1, 14.4 12.63 44, 46, 48 (Avg:47)
293 Anne Lymbery Baranne Tu-Shay 6 6:27:08 10.6, 14.8 12.40 38, 39, 56 (Avg:47)
252 Leanne Hickson Regal Buddie 7 6:27:19 11.2, 13.8 12.39 41, 55, 60 (Avg:57)
236 Wendy Riha Bullio Gebreselassie 8 6:30:07 10.4, 14.9 12.30 35, 47, 48 (Avg:47)
224 Clare Feary Equilo 9 6:54:24 11.2, 11.9 11.58 45, 44, 59 (Avg:51)
225 April Newman Valinor Park Madrass 10 6:54:35 11.2, 11.9 11.58 51, 45, 56 (Avg:50)
235 Anita Ashby Lentara Park Heather 11 6:59:47 10.1, 13.0 11.43 42, 45, 51 (Avg:48)
221 Emily Streckfuss Webbs Creek Starlight 12 7:02:52 10.0, 13.0 11.35 33, 40, 44 (Avg:42)
226 Shannon Cossor Castlebar Bazaar 13 7:09:18 9.7, 13.0 11.18 37, 39, 45 (Avg:42)
228 Jennifer Rogers Castlebar Belair 14 7:09:30 9.7, 13.0 11.18 32, 42, 48 (Avg:45)
250 Ben Hudson Oso Dorothy 15 7:16:44 9.7, 12.5 10.99 42, 40, 42 (Avg:41)
234 Jesse Buchan Mountain Ash Tabasco 16 7:20:12 9.8, 12.1 10.90 40, 47, 48 (Avg:47)
247 Tamara Gibson Oso Silver Soloman 17 7:30:01 9.5, 12.0 10.67 38, 48, 50 (Avg:49)
248 Shea Reynolds Oso Tytanium 18 7:30:06 9.5, 12.0 10.66 42, 46, 50 (Avg:48)
246 Morgan Stapley Oso Meeka 19 7:30:28 9.5, 12.0 10.66 31, 48, 59 (Avg:53)
230 Sue Warren Razorback Flash 20 7:32:55 9.8, 11.4 10.60 42, 46, 51 (Avg:48)
240 Tracy John Berwick Red Princess 21 7:35:45 10.8, 10.1 10.53 36, 43, 50 (Avg:46)
223 Donna Scott Suncrest Beata 22 7:37:01 9.3, 12.0 10.50 40, 42, 46 (Avg:44)
237 Susan Woodward Littlebanks Muscles 23 8:53:18 7.5, 11.1 9.00 43, 44, 56 (Avg:50)
210 Ian Dreghorn Ausden Nile Prins 24 8:55:18 8.0, 10.1 8.97 36, 49, 50 (Avg:49)
242 Kristie Wright Cooroora Allyjah Heart Rate L2 5:17:05 13.6, 16.9 15.14 36, 45, 70 (Avg:57)
239 Noni Seagrim Jubane Diva Lame L2 7:35:42 10.9, 10.1 10.53 32, 42, 53 (Avg:47)
245 Darryl King James Bonn W/D after vetting L1 (Rep) 2:52:12 - 13.94 36, 46, 46 (Avg:46)
243 Rachel Reid Pinedale Zara Lame L1 (Rep) 3:50:51 10.3 10.40 33, 44 (Avg:44)
200 Shaun Jones Shellal Coco W/D after vetting L1 3:59:33 - 10.02 50, 50 (Avg:50)
229 Brett Willis Tamboolou Beau Jangles Heart Rate L1 4:23:36 9.1 9.10 38, 58 (Avg:58)
233 Rachel Benad Hirstglen Probably Metabolics severe L1 4:33:42 8.7 8.77 42, 46 (Avg:46)
222 Geraldine Stuart Kolahai Jailahn W/D after vetting L1 4:59:39 - 8.01 40, 49 (Avg:49)
241 Rachel Reid Aloha Sweet Brier W/D after vetting P/R 0:00:00 - - 39
Lightweight
288 Danielle Coulton Castlebar What's The Goss 1 (BC) 4:52:59 13.7, 20.3 16.38 38, 43, 48 (Avg:45)
277 Fia Hasko-Stewart Blake's Heaven Venus 2 5:07:33 13.9, 17.7 15.61 34, 44, 47 (Avg:45)
287 Victoria Bice Oso Diamond Dazzler 3 5:29:03 12.5, 17.4 14.59 42, 48, 52 (Avg:50)
295 Simon Bain Akifa Farras Ice 4 5:58:22 12.6, 14.2 13.39 42, 52, 54 (Avg:53)
270 Kim Gaspari Cooinda Park Willow 5 6:14:22 12.5, 13.1 12.82 39, 49, 49 (Avg:49)
286 Monica Ballard Birrali Lawrence 6 6:51:33 10.1, 13.6 11.66 34, 44, 51 (Avg:47)
289 Tracy-Lee Cossor Future Dream Savannah 7 6:56:59 10.6, 12.5 11.51 43, 43, 50 (Avg:46)
271 Sue Todd Shakari Bear 8 6:59:10 12.3, 10.6 11.45 38, 48, 55 (Avg:51)
294 Nadine Cooper Blake's Heaven Hiraani 9 6:59:28 10.1, 13.0 11.44 36, 38, 43 (Avg:40)
276 Kali Sloane Blake's Heaven Carousel 10 6:59:36 10.1, 13.0 11.44 44, 42, 54 (Avg:48)
291 Nichola Mepham Orsum-Ma 11 7:05:55 10.4, 12.2 11.27 48, 55, 60 (Avg:57)
297 Elizabeth Moir Bullio Constantina 12 7:08:01 9.8, 13.0 11.21 35, 43, 50 (Avg:46)
296 Essy Mountford Majic Richardo 13 7:08:03 9.8, 13.0 11.21 40, 46, 50 (Avg:48)
299 Arabella Ward Littlebanks Integrity 14 7:16:39 9.7, 12.5 10.99 36, 45, 49 (Avg:47)
278 Talea Hasko-Stewart Blake's Heaven Bombora 15 7:20:32 9.8, 12.1 10.90 34, 41, 56 (Avg:48)
279 Jodi Dewick Wickwood Dark Rose 16 7:29:51 10.4, 10.9 10.67 35, 41, 51 (Avg:46)
290 Chloe Hayden Al-Marah Red Cardinal 17 7:30:31 9.5, 12.0 10.65 44, 46, 50 (Avg:48)
280 Sorsha Stuart-Rokvic Coolinda Park Winston 18 7:35:50 10.8, 10.2 10.53 38, 48, 49 (Avg:48)
282 Robin Gossip Norfolk Park Comet 19 8:37:38 8.7, 9.8 9.27 44, 44, 58 (Avg:51)
272 Avril Cummins C-Biskit Heart Rate L2 6:37:46 10.4, 14.3 12.07 35, 51, 64 (Avg:57)
292 Kim Hill Coolinda Park Snoozze Lame L2 7:41:55 9.1, 12.1 10.39 36, 42, 59 (Avg:50)
283 Olivia De Gruchy Hillbrook Return Lame L1 3:51:00 10.3 10.39 38, 52 (Avg:52)
281 Eliza Webb Abra W/D after vetting P/R 0:00:00 - - 84
Junior
304 Hannah Cossor Newbury Illustraa's Impact 1 (BC) 5:10:19 13.9, 17.4 15.47 33, 49, 52 (Avg:50)
301 Poppy Kettlewell Oso Dizzy 2 5:29:06 12.5, 17.4 14.59 42, 51, 59 (Avg:55)
305 Scarlet Galvin TMB ES Silver Brandy 3 6:57:05 10.6, 12.5 11.51 35, 50, 47 (Avg:48)
303 Ruby Geddes Yallaroo Amira 4 7:13:14 10.2, 12.0 11.08 48, 44, 48 (Avg:46)
302 Emma Cole Windradyne Flame 5 7:13:19 10.2, 12.0 11.08 35, 44, 46 (Avg:45)
306 Kaitlyn Mercieca Henley Farm Fursan 6 7:29:53 10.4, 10.9 10.67 42, 43, 49 (Avg:46)
308 Emily Hill Belle 7 7:41:32 9.1, 12.1 10.40 40, 45, 48 (Avg:46)
307 Julia Hill Bridle Track Wilson 8 7:41:35 9.1, 12.1 10.40 38, 42, 55 (Avg:48)
300 Summer Neal Kintamani Mustang Billy Heart Rate L1 3:40:15 10.8 10.90 38, 62 (Avg:62)